sensor_id;sensor_type;location;lat;lon;timestamp;P1;P2;P0
43280;PMS5003;62175;49.416;8.690;2023-09-18T00:00:42;9;9;
43280;PMS5003;62175;49.416;8.690;2023-09-18T00:03:09;10;10;
43280;PMS5003;62175;49.416;8.690;2023-09-18T00:05:36;12;11;
43280;PMS5003;62175;49.416;8.690;2023-09-18T00:08:03;11;11;
43280;PMS5003;62175;49.416;8.690;2023-09-18T00:10:30;9;9;
43280;PMS5003;62175;49.416;8.690;2023-09-18T00:12:57;10;10;
43280;PMS5003;62175;49.416;8.690;2023-09-18T00:15:24;10;10;
43280;PMS5003;62175;49.416;8.690;2023-09-18T00:17:50;11;10;
43280;PMS5003;62175;49.416;8.690;2023-09-18T00:20:17;12;12;
43280;PMS5003;62175;49.416;8.690;2023-09-18T00:22:44;16;16;
43280;PMS5003;62175;49.416;8.690;2023-09-18T00:25:11;12;12;
43280;PMS5003;62175;49.416;8.690;2023-09-18T00:27:38;12;11;
43280;PMS5003;62175;49.416;8.690;2023-09-18T00:30:05;12;12;
43280;PMS5003;62175;49.416;8.690;2023-09-18T00:32:35;12;11;
43280;PMS5003;62175;49.416;8.690;2023-09-18T00:35:02;14;12;
43280;PMS5003;62175;49.416;8.690;2023-09-18T00:37:29;12;12;
43280;PMS5003;62175;49.416;8.690;2023-09-18T00:39:56;14;13;
43280;PMS5003;62175;49.416;8.690;2023-09-18T00:42:23;13;13;
43280;PMS5003;62175;49.416;8.690;2023-09-18T00:44:50;12;11;
43280;PMS5003;62175;49.416;8.690;2023-09-18T00:47:17;11;11;
43280;PMS5003;62175;49.416;8.690;2023-09-18T00:49:45;12;11;
43280;PMS5003;62175;49.416;8.690;2023-09-18T00:52:15;13;13;
43280;PMS5003;62175;49.416;8.690;2023-09-18T00:54:43;12;12;
43280;PMS5003;62175;49.416;8.690;2023-09-18T00:57:12;11;11;
43280;PMS5003;62175;49.416;8.690;2023-09-18T00:59:39;9;9;
43280;PMS5003;62175;49.416;8.690;2023-09-18T01:02:06;14;14;
43280;PMS5003;62175;49.416;8.690;2023-09-18T01:04:34;10;10;
43280;PMS5003;62175;49.416;8.690;2023-09-18T01:07:01;14;12;
43280;PMS5003;62175;49.416;8.690;2023-09-18T01:09:29;12;11;
43280;PMS5003;62175;49.416;8.690;2023-09-18T01:11:59;12;12;
43280;PMS5003;62175;49.416;8.690;2023-09-18T01:14:33;11;11;
43280;PMS5003;62175;49.416;8.690;2023-09-18T01:17:06;12;12;
43280;PMS5003;62175;49.416;8.690;2023-09-18T01:19:36;11;10;
43280;PMS5003;62175;49.416;8.690;2023-09-18T01:22:05;13;11;
43280;PMS5003;62175;49.416;8.690;2023-09-18T01:24:32;11;11;
43280;PMS5003;62175;49.416;8.690;2023-09-18T01:26:59;12;12;
43280;PMS5003;62175;49.416;8.690;2023-09-18T01:29:26;15;15;
43280;PMS5003;62175;49.416;8.690;2023-09-18T01:31:53;12;12;
43280;PMS5003;62175;49.416;8.690;2023-09-18T01:34:20;10;10;
43280;PMS5003;62175;49.416;8.690;2023-09-18T01:36:51;11;11;
43280;PMS5003;62175;49.416;8.690;2023-09-18T01:39:19;16;14;
43280;PMS5003;62175;49.416;8.690;2023-09-18T01:41:48;13;13;
43280;PMS5003;62175;49.416;8.690;2023-09-18T01:44:15;12;12;
43280;PMS5003;62175;49.416;8.690;2023-09-18T01:46:42;13;13;
43280;PMS5003;62175;49.416;8.690;2023-09-18T01:49:11;12;12;
43280;PMS5003;62175;49.416;8.690;2023-09-18T01:51:37;13;13;
43280;PMS5003;62175;49.416;8.690;2023-09-18T01:54:04;12;11;
43280;PMS5003;62175;49.416;8.690;2023-09-18T01:56:32;11;11;
43280;PMS5003;62175;49.416;8.690;2023-09-18T01:58:59;14;13;
43280;PMS5003;62175;49.416;8.690;2023-09-18T02:01:26;17;16;
43280;PMS5003;62175;49.416;8.690;2023-09-18T02:03:52;26;23;
43280;PMS5003;62175;49.416;8.690;2023-09-18T02:06:19;18;18;
43280;PMS5003;62175;49.416;8.690;2023-09-18T02:08:46;9;8;
43280;PMS5003;62175;49.416;8.690;2023-09-18T02:11:12;12;10;
43280;PMS5003;62175;49.416;8.690;2023-09-18T02:13:39;8;8;
43280;PMS5003;62175;49.416;8.690;2023-09-18T02:16:06;10;9;
43280;PMS5003;62175;49.416;8.690;2023-09-18T02:18:34;11;9;
43280;PMS5003;62175;49.416;8.690;2023-09-18T02:21:00;8;8;
43280;PMS5003;62175;49.416;8.690;2023-09-18T02:23:27;14;11;
43280;PMS5003;62175;49.416;8.690;2023-09-18T02:25:55;8;8;
43280;PMS5003;62175;49.416;8.690;2023-09-18T02:28:22;7;7;
43280;PMS5003;62175;49.416;8.690;2023-09-18T02:30:50;13;12;
43280;PMS5003;62175;49.416;8.690;2023-09-18T02:33:17;7;6;
43280;PMS5003;62175;49.416;8.690;2023-09-18T02:35:43;9;9;
43280;PMS5003;62175;49.416;8.690;2023-09-18T02:38:10;7;7;
43280;PMS5003;62175;49.416;8.690;2023-09-18T02:40:37;8;7;
43280;PMS5003;62175;49.416;8.690;2023-09-18T02:43:04;8;7;
43280;PMS5003;62175;49.416;8.690;2023-09-18T02:45:31;7;7;
43280;PMS5003;62175;49.416;8.690;2023-09-18T02:47:57;8;8;
43280;PMS5003;62175;49.416;8.690;2023-09-18T02:50:24;8;7;
43280;PMS5003;62175;49.416;8.690;2023-09-18T02:52:51;9;8;
43280;PMS5003;62175;49.416;8.690;2023-09-18T02:55:18;6;6;
43280;PMS5003;62175;49.416;8.690;2023-09-18T02:57:45;7;7;
43280;PMS5003;62175;49.416;8.690;2023-09-18T03:00:12;8;8;
43280;PMS5003;62175;49.416;8.690;2023-09-18T03:02:39;9;8;
43280;PMS5003;62175;49.416;8.690;2023-09-18T03:05:06;10;9;
43280;PMS5003;62175;49.416;8.690;2023-09-18T03:07:34;10;8;
43280;PMS5003;62175;49.416;8.690;2023-09-18T03:10:01;8;8;
43280;PMS5003;62175;49.416;8.690;2023-09-18T03:12:27;8;8;
43280;PMS5003;62175;49.416;8.690;2023-09-18T03:14:54;9;9;
43280;PMS5003;62175;49.416;8.690;2023-09-18T03:17:21;9;9;
43280;PMS5003;62175;49.416;8.690;2023-09-18T03:19:48;8;8;
43280;PMS5003;62175;49.416;8.690;2023-09-18T03:22:16;7;7;
43280;PMS5003;62175;49.416;8.690;2023-09-18T03:24:42;7;7;
43280;PMS5003;62175;49.416;8.690;2023-09-18T03:27:10;7;7;
43280;PMS5003;62175;49.416;8.690;2023-09-18T03:29:37;7;7;
43280;PMS5003;62175;49.416;8.690;2023-09-18T03:32:04;8;8;
43280;PMS5003;62175;49.416;8.690;2023-09-18T03:34:32;8;8;
43280;PMS5003;62175;49.416;8.690;2023-09-18T03:36:58;10;9;
43280;PMS5003;62175;49.416;8.690;2023-09-18T03:39:25;8;8;
43280;PMS5003;62175;49.416;8.690;2023-09-18T03:41:52;6;6;
43280;PMS5003;62175;49.416;8.690;2023-09-18T03:44:19;6;6;
43280;PMS5003;62175;49.416;8.690;2023-09-18T03:46:47;8;8;
43280;PMS5003;62175;49.416;8.690;2023-09-18T03:49:13;8;8;
43280;PMS5003;62175;49.416;8.690;2023-09-18T03:51:41;8;8;
43280;PMS5003;62175;49.416;8.690;2023-09-18T03:54:08;9;8;
43280;PMS5003;62175;49.416;8.690;2023-09-18T03:56:35;12;8;
43280;PMS5003;62175;49.416;8.690;2023-09-18T03:59:02;9;8;
43280;PMS5003;62175;49.416;8.690;2023-09-18T04:01:29;9;8;
43280;PMS5003;62175;49.416;8.690;2023-09-18T04:03:56;6;6;
43280;PMS5003;62175;49.416;8.690;2023-09-18T04:06:23;8;7;
43280;PMS5003;62175;49.416;8.690;2023-09-18T04:08:50;6;6;
43280;PMS5003;62175;49.416;8.690;2023-09-18T04:11:18;8;7;
43280;PMS5003;62175;49.416;8.690;2023-09-18T04:13:44;6;6;
43280;PMS5003;62175;49.416;8.690;2023-09-18T04:16:12;8;7;
43280;PMS5003;62175;49.416;8.690;2023-09-18T04:18:39;10;8;
43280;PMS5003;62175;49.416;8.690;2023-09-18T04:21:06;9;9;
43280;PMS5003;62175;49.416;8.690;2023-09-18T04:23:32;10;10;
43280;PMS5003;62175;49.416;8.690;2023-09-18T04:25:59;10;9;
43280;PMS5003;62175;49.416;8.690;2023-09-18T04:28:26;10;7;
43280;PMS5003;62175;49.416;8.690;2023-09-18T04:30:55;9;8;
43280;PMS5003;62175;49.416;8.690;2023-09-18T04:33:22;8;8;
43280;PMS5003;62175;49.416;8.690;2023-09-18T04:35:49;10;9;
43280;PMS5003;62175;49.416;8.690;2023-09-18T04:38:16;7;6;
43280;PMS5003;62175;49.416;8.690;2023-09-18T04:40:43;9;9;
43280;PMS5003;62175;49.416;8.690;2023-09-18T04:43:10;8;7;
43280;PMS5003;62175;49.416;8.690;2023-09-18T04:45:37;7;7;
43280;PMS5003;62175;49.416;8.690;2023-09-18T04:48:04;4;4;
43280;PMS5003;62175;49.416;8.690;2023-09-18T04:50:31;5;5;
43280;PMS5003;62175;49.416;8.690;2023-09-18T04:52:58;3;3;
43280;PMS5003;62175;49.416;8.690;2023-09-18T04:55:25;5;5;
43280;PMS5003;62175;49.416;8.690;2023-09-18T04:57:52;3;2;
43280;PMS5003;62175;49.416;8.690;2023-09-18T05:00:19;5;5;
43280;PMS5003;62175;49.416;8.690;2023-09-18T05:02:46;4;4;
43280;PMS5003;62175;49.416;8.690;2023-09-18T05:05:14;3;3;
43280;PMS5003;62175;49.416;8.690;2023-09-18T05:07:41;4;3;
43280;PMS5003;62175;49.416;8.690;2023-09-18T05:10:09;6;4;
43280;PMS5003;62175;49.416;8.690;2023-09-18T05:12:38;7;6;
43280;PMS5003;62175;49.416;8.690;2023-09-18T05:15:06;5;3;
43280;PMS5003;62175;49.416;8.690;2023-09-18T05:17:42;5;5;
43280;PMS5003;62175;49.416;8.690;2023-09-18T05:20:10;5;5;
43280;PMS5003;62175;49.416;8.690;2023-09-18T05:22:38;7;6;
43280;PMS5003;62175;49.416;8.690;2023-09-18T05:25:06;5;5;
43280;PMS5003;62175;49.416;8.690;2023-09-18T05:27:33;8;6;
43280;PMS5003;62175;49.416;8.690;2023-09-18T05:30:00;9;9;
43280;PMS5003;62175;49.416;8.690;2023-09-18T05:32:27;5;5;
43280;PMS5003;62175;49.416;8.690;2023-09-18T05:34:54;9;6;
43280;PMS5003;62175;49.416;8.690;2023-09-18T05:37:21;7;7;
43280;PMS5003;62175;49.416;8.690;2023-09-18T05:39:48;7;6;
43280;PMS5003;62175;49.416;8.690;2023-09-18T05:42:15;7;5;
43280;PMS5003;62175;49.416;8.690;2023-09-18T05:44:41;7;6;
43280;PMS5003;62175;49.416;8.690;2023-09-18T05:47:08;6;5;
43280;PMS5003;62175;49.416;8.690;2023-09-18T05:49:36;8;8;
43280;PMS5003;62175;49.416;8.690;2023-09-18T05:52:03;7;6;
43280;PMS5003;62175;49.416;8.690;2023-09-18T05:54:31;7;7;
43280;PMS5003;62175;49.416;8.690;2023-09-18T05:56:57;5;5;
43280;PMS5003;62175;49.416;8.690;2023-09-18T05:59:24;6;6;
43280;PMS5003;62175;49.416;8.690;2023-09-18T06:01:53;9;9;
43280;PMS5003;62175;49.416;8.690;2023-09-18T06:04:20;9;8;
43280;PMS5003;62175;49.416;8.690;2023-09-18T06:06:47;10;8;
43280;PMS5003;62175;49.416;8.690;2023-09-18T06:09:13;6;5;
43280;PMS5003;62175;49.416;8.690;2023-09-18T06:11:40;7;7;
43280;PMS5003;62175;49.416;8.690;2023-09-18T06:14:07;8;8;
43280;PMS5003;62175;49.416;8.690;2023-09-18T06:16:34;8;6;
43280;PMS5003;62175;49.416;8.690;2023-09-18T06:19:02;6;6;
43280;PMS5003;62175;49.416;8.690;2023-09-18T06:21:29;8;7;
43280;PMS5003;62175;49.416;8.690;2023-09-18T06:23:56;5;5;
43280;PMS5003;62175;49.416;8.690;2023-09-18T06:26:22;6;5;
43280;PMS5003;62175;49.416;8.690;2023-09-18T06:28:49;6;6;
43280;PMS5003;62175;49.416;8.690;2023-09-18T06:31:16;5;5;
43280;PMS5003;62175;49.416;8.690;2023-09-18T06:33:44;6;6;
43280;PMS5003;62175;49.416;8.690;2023-09-18T06:36:11;6;6;
43280;PMS5003;62175;49.416;8.690;2023-09-18T06:38:38;10;8;
43280;PMS5003;62175;49.416;8.690;2023-09-18T06:41:06;10;8;
43280;PMS5003;62175;49.416;8.690;2023-09-18T06:43:35;7;7;
43280;PMS5003;62175;49.416;8.690;2023-09-18T06:46:01;4;4;
43280;PMS5003;62175;49.416;8.690;2023-09-18T06:48:29;7;6;
43280;PMS5003;62175;49.416;8.690;2023-09-18T06:50:59;7;6;
43280;PMS5003;62175;49.416;8.690;2023-09-18T06:53:29;8;5;
43280;PMS5003;62175;49.416;8.690;2023-09-18T06:55:59;5;5;
43280;PMS5003;62175;49.416;8.690;2023-09-18T06:58:30;6;5;
43280;PMS5003;62175;49.416;8.690;2023-09-18T07:01:02;6;6;
43280;PMS5003;62175;49.416;8.690;2023-09-18T07:03:34;7;7;
43280;PMS5003;62175;49.416;8.690;2023-09-18T07:06:04;6;5;
43280;PMS5003;62175;49.416;8.690;2023-09-18T07:08:44;5;4;
43280;PMS5003;62175;49.416;8.690;2023-09-18T07:11:25;4;4;
43280;PMS5003;62175;49.416;8.690;2023-09-18T07:14:08;8;6;
43280;PMS5003;62175;49.416;8.690;2023-09-18T07:16:41;7;7;
43280;PMS5003;62175;49.416;8.690;2023-09-18T07:19:16;5;5;
43280;PMS5003;62175;49.416;8.690;2023-09-18T07:21:46;6;6;
43280;PMS5003;62175;49.416;8.690;2023-09-18T07:24:28;5;5;
43280;PMS5003;62175;49.416;8.690;2023-09-18T07:27:02;6;6;
43280;PMS5003;62175;49.416;8.690;2023-09-18T07:29:31;5;5;
43280;PMS5003;62175;49.416;8.690;2023-09-18T07:31:58;6;4;
43280;PMS5003;62175;49.416;8.690;2023-09-18T07:34:27;6;6;
43280;PMS5003;62175;49.416;8.690;2023-09-18T07:36:59;6;4;
43280;PMS5003;62175;49.416;8.690;2023-09-18T07:39:30;6;5;
43280;PMS5003;62175;49.416;8.690;2023-09-18T07:41:59;5;5;
43280;PMS5003;62175;49.416;8.690;2023-09-18T07:44:36;5;4;
43280;PMS5003;62175;49.416;8.690;2023-09-18T07:47:04;8;5;
43280;PMS5003;62175;49.416;8.690;2023-09-18T07:49:36;4;4;
43280;PMS5003;62175;49.416;8.690;2023-09-18T08:09:29;5;4;
43280;PMS5003;62175;49.416;8.690;2023-09-18T08:12:17;3;2;
43280;PMS5003;62175;49.416;8.690;2023-09-18T08:14:52;3;2;
43280;PMS5003;62175;49.416;8.690;2023-09-18T08:20:15;3;3;
43280;PMS5003;62175;49.416;8.690;2023-09-18T08:22:52;5;5;
43280;PMS5003;62175;49.416;8.690;2023-09-18T08:23:15;5;5;
43280;PMS5003;62175;49.416;8.690;2023-09-18T08:26:05;3;3;
43280;PMS5003;62175;49.416;8.690;2023-09-18T08:34:45;3;3;
43280;PMS5003;62175;49.416;8.690;2023-09-18T08:40:29;4;2;
43280;PMS5003;62175;49.416;8.690;2023-09-18T08:41:00;4;2;
43280;PMS5003;62175;49.416;8.690;2023-09-18T08:44:02;2;2;
43280;PMS5003;62175;49.416;8.690;2023-09-18T08:48:47;1;1;
43280;PMS5003;62175;49.416;8.690;2023-09-18T08:51:23;3;3;
43280;PMS5003;62175;49.416;8.690;2023-09-18T08:54:08;4;2;
43280;PMS5003;62175;49.416;8.690;2023-09-18T08:58:03;3;2;
43280;PMS5003;62175;49.416;8.690;2023-09-18T09:00:38;3;3;
43280;PMS5003;62175;49.416;8.690;2023-09-18T09:03:51;3;3;
43280;PMS5003;62175;49.416;8.690;2023-09-18T09:08:02;3;3;
43280;PMS5003;62175;49.416;8.690;2023-09-18T09:10:46;2;2;
43280;PMS5003;62175;49.416;8.690;2023-09-18T09:22:38;2;2;
43280;PMS5003;62175;49.416;8.690;2023-09-18T09:25:01;1;1;
43280;PMS5003;62175;49.416;8.690;2023-09-18T09:47:16;3;2;
43280;PMS5003;62175;49.416;8.690;2023-09-18T09:49:45;1;1;
43280;PMS5003;62175;49.416;8.690;2023-09-18T09:52:18;1;0;
43280;PMS5003;62175;49.416;8.690;2023-09-18T09:54:47;1;1;
43280;PMS5003;62175;49.416;8.690;2023-09-18T09:57:16;1;1;
43280;PMS5003;62175;49.416;8.690;2023-09-18T09:59:58;1;1;
43280;PMS5003;62175;49.416;8.690;2023-09-18T10:02:37;4;2;
43280;PMS5003;62175;49.416;8.690;2023-09-18T10:05:07;1;0;
43280;PMS5003;62175;49.416;8.690;2023-09-18T10:07:37;2;1;
43280;PMS5003;62175;49.416;8.690;2023-09-18T10:10:07;2;1;
43280;PMS5003;62175;49.416;8.690;2023-09-18T10:12:46;1;1;
43280;PMS5003;62175;49.416;8.690;2023-09-18T10:15:16;2;2;
43280;PMS5003;62175;49.416;8.690;2023-09-18T10:17:50;2;2;
43280;PMS5003;62175;49.416;8.690;2023-09-18T10:18:28;2;2;
43280;PMS5003;62175;49.416;8.690;2023-09-18T10:21:33;2;2;
43280;PMS5003;62175;49.416;8.690;2023-09-18T10:24:22;1;1;
43280;PMS5003;62175;49.416;8.690;2023-09-18T10:27:15;2;2;
43280;PMS5003;62175;49.416;8.690;2023-09-18T10:29:49;2;2;
43280;PMS5003;62175;49.416;8.690;2023-09-18T10:32:20;4;2;
43280;PMS5003;62175;49.416;8.690;2023-09-18T10:34:50;2;2;
43280;PMS5003;62175;49.416;8.690;2023-09-18T10:37:24;2;1;
43280;PMS5003;62175;49.416;8.690;2023-09-18T10:40:05;1;1;
43280;PMS5003;62175;49.416;8.690;2023-09-18T10:42:52;3;3;
43280;PMS5003;62175;49.416;8.690;2023-09-18T10:45:26;2;2;
43280;PMS5003;62175;49.416;8.690;2023-09-18T10:47:59;2;2;
43280;PMS5003;62175;49.416;8.690;2023-09-18T10:50:41;2;1;
43280;PMS5003;62175;49.416;8.690;2023-09-18T10:53:12;2;2;
43280;PMS5003;62175;49.416;8.690;2023-09-18T10:55:47;1;1;
43280;PMS5003;62175;49.416;8.690;2023-09-18T10:58:29;2;2;
43280;PMS5003;62175;49.416;8.690;2023-09-18T11:01:03;1;1;
43280;PMS5003;62175;49.416;8.690;2023-09-18T11:03:33;2;2;
43280;PMS5003;62175;49.416;8.690;2023-09-18T11:07:04;4;2;
43280;PMS5003;62175;49.416;8.690;2023-09-18T11:08:14;4;2;
43280;PMS5003;62175;49.416;8.690;2023-09-18T11:11:21;3;3;
43280;PMS5003;62175;49.416;8.690;2023-09-18T11:28:16;3;3;
43280;PMS5003;62175;49.416;8.690;2023-09-18T11:30:51;2;2;
43280;PMS5003;62175;49.416;8.690;2023-09-18T11:33:33;2;2;
43280;PMS5003;62175;49.416;8.690;2023-09-18T11:36:12;1;1;
43280;PMS5003;62175;49.416;8.690;2023-09-18T11:39:43;2;2;
43280;PMS5003;62175;49.416;8.690;2023-09-18T11:42:19;1;1;
43280;PMS5003;62175;49.416;8.690;2023-09-18T11:48:02;2;2;
43280;PMS5003;62175;49.416;8.690;2023-09-18T11:50:40;2;2;
43280;PMS5003;62175;49.416;8.690;2023-09-18T11:53:12;2;2;
43280;PMS5003;62175;49.416;8.690;2023-09-18T11:55:44;2;1;
43280;PMS5003;62175;49.416;8.690;2023-09-18T11:58:14;1;1;
43280;PMS5003;62175;49.416;8.690;2023-09-18T12:03:18;1;1;
43280;PMS5003;62175;49.416;8.690;2023-09-18T12:05:58;1;0;
43280;PMS5003;62175;49.416;8.690;2023-09-18T12:09:03;1;1;
43280;PMS5003;62175;49.416;8.690;2023-09-18T12:11:34;1;1;
43280;PMS5003;62175;49.416;8.690;2023-09-18T12:14:20;2;2;
43280;PMS5003;62175;49.416;8.690;2023-09-18T12:17:05;0;0;
43280;PMS5003;62175;49.416;8.690;2023-09-18T12:19:36;1;1;
43280;PMS5003;62175;49.416;8.690;2023-09-18T13:43:49;1;1;
43280;PMS5003;62175;49.416;8.690;2023-09-18T13:46:15;2;2;
43280;PMS5003;62175;49.416;8.690;2023-09-18T13:48:42;2;2;
43280;PMS5003;62175;49.416;8.690;2023-09-18T13:51:15;2;2;
43280;PMS5003;62175;49.416;8.690;2023-09-18T13:53:51;1;1;
43280;PMS5003;62175;49.416;8.690;2023-09-18T13:56:28;1;1;
43280;PMS5003;62175;49.416;8.690;2023-09-18T13:59:01;2;2;
43280;PMS5003;62175;49.416;8.690;2023-09-18T14:01:31;1;1;
43280;PMS5003;62175;49.416;8.690;2023-09-18T14:04:02;1;1;
43280;PMS5003;62175;49.416;8.690;2023-09-18T14:22:56;2;2;
43280;PMS5003;62175;49.416;8.690;2023-09-18T14:25:26;4;3;
43280;PMS5003;62175;49.416;8.690;2023-09-18T14:28:05;2;2;
43280;PMS5003;62175;49.416;8.690;2023-09-18T14:30:34;2;2;
43280;PMS5003;62175;49.416;8.690;2023-09-18T14:33:01;3;3;
43280;PMS5003;62175;49.416;8.690;2023-09-18T14:35:29;3;2;
43280;PMS5003;62175;49.416;8.690;2023-09-18T14:37:58;1;1;
43280;PMS5003;62175;49.416;8.690;2023-09-18T14:40:28;3;2;
43280;PMS5003;62175;49.416;8.690;2023-09-18T14:43:04;3;2;
43280;PMS5003;62175;49.416;8.690;2023-09-18T14:45:31;1;1;
43280;PMS5003;62175;49.416;8.690;2023-09-18T14:48:08;2;2;
43280;PMS5003;62175;49.416;8.690;2023-09-18T14:50:37;1;1;
43280;PMS5003;62175;49.416;8.690;2023-09-18T14:53:08;1;0;
43280;PMS5003;62175;49.416;8.690;2023-09-18T14:55:36;3;3;
43280;PMS5003;62175;49.416;8.690;2023-09-18T14:58:03;4;4;
43280;PMS5003;62175;49.416;8.690;2023-09-18T15:00:31;3;3;
43280;PMS5003;62175;49.416;8.690;2023-09-18T15:03:00;2;1;
43280;PMS5003;62175;49.416;8.690;2023-09-18T15:05:32;2;2;
43280;PMS5003;62175;49.416;8.690;2023-09-18T15:08:02;3;3;
43280;PMS5003;62175;49.416;8.690;2023-09-18T15:10:32;8;8;
43280;PMS5003;62175;49.416;8.690;2023-09-18T15:13:01;10;10;
43280;PMS5003;62175;49.416;8.690;2023-09-18T15:15:33;12;12;
43280;PMS5003;62175;49.416;8.690;2023-09-18T15:18:03;10;10;
43280;PMS5003;62175;49.416;8.690;2023-09-18T15:21:16;14;13;
43280;PMS5003;62175;49.416;8.690;2023-09-18T15:45:42;14;13;
43280;PMS5003;62175;49.416;8.690;2023-09-18T15:48:30;3;3;
43280;PMS5003;62175;49.416;8.690;2023-09-18T15:50:59;1;1;
43280;PMS5003;62175;49.416;8.690;2023-09-18T15:53:48;2;2;
43280;PMS5003;62175;49.416;8.690;2023-09-18T15:56:24;2;1;
43280;PMS5003;62175;49.416;8.690;2023-09-18T16:00:27;11;11;
43280;PMS5003;62175;49.416;8.690;2023-09-18T16:03:00;12;12;
43280;PMS5003;62175;49.416;8.690;2023-09-18T16:05:30;11;11;
43280;PMS5003;62175;49.416;8.690;2023-09-18T16:07:57;10;10;
43280;PMS5003;62175;49.416;8.690;2023-09-18T16:10:28;6;6;
43280;PMS5003;62175;49.416;8.690;2023-09-18T16:13:07;2;1;
43280;PMS5003;62175;49.416;8.690;2023-09-18T16:16:07;3;3;
43280;PMS5003;62175;49.416;8.690;2023-09-18T16:18:48;4;4;
43280;PMS5003;62175;49.416;8.690;2023-09-18T16:21:23;3;2;
43280;PMS5003;62175;49.416;8.690;2023-09-18T16:23:52;1;1;
43280;PMS5003;62175;49.416;8.690;2023-09-18T16:26:40;3;3;
43280;PMS5003;62175;49.416;8.690;2023-09-18T22:02:51;0;0;
43280;PMS5003;62175;49.416;8.690;2023-09-18T22:05:19;1;1;
43280;PMS5003;62175;49.416;8.690;2023-09-18T22:07:46;0;0;
43280;PMS5003;62175;49.416;8.690;2023-09-18T22:10:13;1;1;
43280;PMS5003;62175;49.416;8.690;2023-09-18T22:12:41;1;0;
43280;PMS5003;62175;49.416;8.690;2023-09-18T22:15:08;1;1;
43280;PMS5003;62175;49.416;8.690;2023-09-18T22:17:35;1;1;
43280;PMS5003;62175;49.416;8.690;2023-09-18T22:20:03;0;0;
43280;PMS5003;62175;49.416;8.690;2023-09-18T22:22:30;1;1;
43280;PMS5003;62175;49.416;8.690;2023-09-18T22:24:57;1;1;
43280;PMS5003;62175;49.416;8.690;2023-09-18T22:27:24;2;1;
43280;PMS5003;62175;49.416;8.690;2023-09-18T22:29:50;1;1;
43280;PMS5003;62175;49.416;8.690;2023-09-18T22:32:18;0;0;
43280;PMS5003;62175;49.416;8.690;2023-09-18T22:34:45;1;1;
43280;PMS5003;62175;49.416;8.690;2023-09-18T22:37:12;1;1;
